Florence, Texas
Current Conditions -  °F | °C
As of 7:49 AM on Thursday 23 Oct 2014 (Local Time) from KGTU Reporting Station
Overcast Overcast  
Wind Chill: 64°   Ceiling: 12000
Heat Index: 64°   Visibility: 10mi
Dew Point: 61°   Wind: 0mph
Humidity: 88%   Direction: NA
Pressure: 30.13"   Gusts: NA
Location:  30.84°N, 97.79°W
Report Text: KGTU 231249Z 00000KT 10SM OVC120 18/16 A3013
Loading
Personal Weather Stations






























Interactive Weather Map
Tropical Storm Tracking
New forecast layout! Learn more

10-Day Weather Forecast

Advertisements
Track Severe Weather on mobile